createdAt,value
2023-03-24T00:00:10.893Z,22.50
2023-03-24T00:02:42.640Z,24.30
2023-03-24T00:05:18.136Z,32.38
2023-03-24T00:07:46.709Z,27.35
2023-03-24T00:10:22.848Z,33.55
2023-03-24T00:12:51.033Z,25.65
2023-03-24T00:15:21.294Z,37.08
2023-03-24T00:17:52.133Z,25.77
2023-03-24T00:20:20.973Z,28.38
2023-03-24T00:22:51.281Z,27.77
2023-03-24T00:25:23.280Z,23.60
2023-03-24T00:27:51.561Z,31.48
2023-03-24T00:30:19.615Z,29.02
2023-03-24T00:32:46.974Z,28.85
2023-03-24T00:35:16.396Z,30.45
2023-03-24T00:37:44.768Z,26.55
2023-03-24T00:40:16.739Z,27.52
2023-03-24T00:42:45.925Z,23.65
2023-03-24T00:45:15.309Z,26.55
2023-03-24T00:47:44.959Z,23.38
2023-03-24T00:50:18.826Z,24.02
2023-03-24T00:52:48.341Z,29.85
2023-03-24T00:55:16.360Z,21.83
2023-03-24T00:57:50.890Z,28.63
2023-03-24T01:00:21.654Z,24.25
2023-03-24T01:02:53.948Z,32.37
2023-03-24T01:05:22.504Z,37.25
2023-03-24T01:07:52.207Z,25.23
2023-03-24T01:10:21.801Z,28.15
2023-03-24T01:12:49.052Z,28.63
2023-03-24T01:15:18.686Z,34.42
2023-03-24T01:17:47.425Z,37.20
2023-03-24T01:20:14.645Z,29.85
2023-03-24T01:22:44.894Z,34.15
2023-03-24T01:25:17.216Z,27.58
2023-03-24T01:27:44.877Z,32.97
2023-03-24T01:30:17.389Z,27.23
2023-03-24T01:32:44.243Z,33.88
2023-03-24T01:35:11.601Z,33.72
2023-03-24T01:37:39.526Z,34.78
2023-03-24T01:40:09.739Z,31.65
2023-03-24T01:42:38.472Z,32.42
2023-03-24T01:45:42.393Z,32.50
2023-03-24T01:48:28.697Z,33.95
2023-03-24T01:51:25.400Z,32.47
2023-03-24T01:53:58.603Z,33.90
2023-03-24T01:56:26.449Z,26.38
2023-03-24T01:58:58.525Z,39.55
2023-03-24T02:01:30.111Z,36.70
2023-03-24T02:04:04.000Z,33.75
2023-03-24T02:06:33.672Z,34.10
2023-03-24T02:09:04.279Z,29.67
2023-03-24T02:11:32.982Z,38.42
2023-03-24T02:13:59.788Z,28.70
2023-03-24T02:16:37.466Z,31.67
2023-03-24T02:19:38.164Z,31.13
2023-03-24T02:22:40.957Z,27.07
2023-03-24T02:25:26.276Z,23.45
2023-03-24T02:28:03.776Z,30.65
2023-03-24T02:30:41.720Z,27.33
2023-03-24T02:33:46.012Z,24.08
2023-03-24T02:36:30.266Z,31.80
2023-03-24T02:39:25.106Z,26.63
2023-03-24T02:42:12.573Z,39.35
2023-03-24T02:44:56.791Z,33.22
2023-03-24T02:48:05.399Z,34.53
2023-03-24T02:51:05.039Z,28.50
2023-03-24T02:53:37.832Z,33.90
2023-03-24T02:56:30.225Z,31.20
2023-03-24T02:59:09.916Z,32.65
2023-03-24T03:01:45.649Z,38.38
2023-03-24T03:04:17.344Z,27.70
2023-03-24T03:06:49.554Z,39.80
2023-03-24T03:09:19.149Z,30.23
2023-03-24T03:11:49.710Z,29.55
2023-03-24T03:14:25.931Z,28.53
2023-03-24T03:17:00.256Z,26.77
2023-03-24T03:19:47.083Z,33.92
2023-03-24T03:22:20.951Z,25.35
2023-03-24T03:24:53.018Z,32.08
2023-03-24T03:27:29.571Z,37.60
2023-03-24T03:30:06.571Z,34.45
2023-03-24T03:32:39.282Z,35.03
2023-03-24T03:35:16.818Z,38.97
2023-03-24T03:38:04.783Z,27.17
2023-03-24T03:40:43.215Z,32.97
2023-03-24T03:43:10.062Z,26.08
2023-03-24T03:45:36.794Z,33.78
2023-03-24T03:48:03.865Z,25.40
2023-03-24T03:50:31.676Z,33.03
2023-03-24T03:52:58.404Z,32.00
2023-03-24T03:55:25.204Z,32.95
2023-03-24T03:57:52.241Z,21.15
2023-03-24T04:00:24.715Z,28.27
2023-03-24T04:03:11.173Z,24.00
2023-03-24T04:06:01.945Z,34.25
2023-03-24T04:08:49.668Z,28.47
2023-03-24T04:11:40.842Z,33.42
2023-03-24T04:14:29.874Z,22.67
2023-03-24T04:17:20.838Z,24.05
2023-03-24T04:20:02.672Z,24.77
2023-03-24T04:22:44.062Z,37.90
2023-03-24T04:25:35.449Z,31.10
2023-03-24T04:28:26.406Z,29.50
2023-03-24T04:31:07.837Z,21.20
2023-03-24T04:33:43.621Z,20.95
2023-03-24T04:36:19.176Z,34.13
2023-03-24T04:38:53.366Z,27.30
2023-03-24T04:41:22.219Z,18.95
2023-03-24T04:43:49.323Z,27.95
2023-03-24T04:46:19.262Z,17.98
2023-03-24T04:48:48.174Z,29.33
2023-03-24T04:51:18.301Z,34.90
2023-03-24T04:53:46.165Z,24.55
2023-03-24T04:56:18.799Z,19.88
2023-03-24T04:58:45.449Z,21.20
2023-03-24T05:01:12.203Z,19.90
2023-03-24T05:03:38.994Z,36.05
2023-03-24T05:06:06.151Z,33.97
2023-03-24T05:08:33.249Z,27.10
2023-03-24T05:11:00.000Z,31.35
2023-03-24T05:13:26.762Z,25.40
2023-03-24T05:15:54.595Z,23.13
2023-03-24T05:18:21.500Z,25.75
2023-03-24T05:20:48.238Z,22.85
2023-03-24T05:23:14.978Z,33.05
2023-03-24T05:25:41.840Z,22.60
2023-03-24T05:28:08.608Z,24.80
2023-03-24T05:30:35.681Z,25.40
2023-03-24T05:33:02.539Z,20.33
2023-03-24T05:35:29.233Z,23.40
2023-03-24T05:37:56.076Z,26.70
2023-03-24T05:40:22.769Z,25.88
2023-03-24T05:42:50.543Z,28.50
2023-03-24T05:45:17.678Z,25.02
2023-03-24T05:47:44.544Z,19.10
2023-03-24T05:50:11.394Z,25.33
2023-03-24T05:52:38.105Z,16.55
2023-03-24T05:55:05.271Z,24.60
2023-03-24T05:57:32.209Z,18.42
2023-03-24T05:59:58.888Z,26.02
2023-03-24T06:02:25.807Z,21.00
2023-03-24T06:04:53.219Z,17.98
2023-03-24T06:07:20.249Z,17.73
2023-03-24T06:09:47.257Z,19.23
2023-03-24T06:12:16.132Z,23.02
2023-03-24T06:14:43.268Z,19.35
2023-03-24T06:17:14.683Z,22.05
2023-03-24T06:19:49.973Z,21.15
2023-03-24T06:22:20.801Z,24.38
2023-03-24T06:24:47.885Z,20.05
2023-03-24T06:27:14.698Z,21.80
2023-03-24T06:29:44.766Z,21.27
2023-03-24T06:32:11.850Z,19.08
2023-03-24T06:34:41.295Z,22.95
2023-03-24T06:37:07.973Z,15.50
2023-03-24T06:39:34.653Z,14.00
2023-03-24T06:42:01.292Z,16.30
2023-03-24T06:44:28.034Z,12.10
2023-03-24T06:46:54.856Z,19.25
2023-03-24T06:49:21.580Z,13.93
2023-03-24T06:51:48.299Z,17.85
2023-03-24T06:54:15.651Z,16.08
2023-03-24T06:56:42.594Z,14.02
2023-03-24T06:59:09.412Z,16.02
2023-03-24T07:01:37.254Z,10.02
2023-03-24T07:04:04.743Z,9.48
2023-03-24T07:06:33.183Z,11.00
2023-03-24T07:09:02.726Z,11.20
2023-03-24T07:11:29.418Z,15.00
2023-03-24T07:13:56.454Z,9.98
2023-03-24T07:16:23.369Z,6.65
2023-03-24T07:18:50.113Z,9.25
2023-03-24T07:21:16.977Z,8.52
2023-03-24T07:23:43.906Z,6.00
2023-03-24T07:26:10.722Z,10.52
2023-03-24T07:28:37.570Z,7.53
2023-03-24T07:31:06.846Z,7.32
2023-03-24T07:33:33.694Z,4.82
2023-03-24T07:36:00.709Z,8.88
2023-03-24T07:38:27.569Z,7.25
2023-03-24T07:40:54.541Z,8.13
2023-03-24T07:43:21.975Z,5.72
2023-03-24T07:45:49.061Z,5.18
2023-03-24T07:48:16.162Z,5.18
2023-03-24T07:50:43.042Z,3.83
2023-03-24T07:53:09.890Z,4.00
2023-03-24T07:55:39.497Z,5.82
2023-03-24T07:58:06.664Z,2.72
2023-03-24T08:00:33.716Z,3.63
2023-03-24T08:03:01.006Z,4.22
2023-03-24T08:05:29.682Z,3.88
2023-03-24T08:07:58.135Z,3.17
2023-03-24T08:10:27.274Z,2.92
2023-03-24T08:12:54.766Z,2.72
2023-03-24T08:15:21.562Z,1.90
2023-03-24T08:17:49.893Z,4.68
2023-03-24T08:20:16.898Z,4.60
2023-03-24T08:22:50.193Z,4.00
2023-03-24T08:25:21.960Z,6.10
2023-03-24T08:27:49.025Z,3.03
2023-03-24T08:30:24.587Z,2.10
2023-03-24T08:32:54.497Z,1.98
2023-03-24T08:35:27.275Z,2.00
2023-03-24T08:37:54.085Z,1.58
2023-03-24T08:40:23.868Z,1.00
2023-03-24T08:42:56.634Z,1.05
2023-03-24T08:45:27.521Z,3.55
2023-03-24T08:47:55.581Z,2.83
2023-03-24T08:50:24.369Z,0.73
2023-03-24T08:52:51.165Z,0.75
2023-03-24T08:55:19.524Z,2.17
2023-03-24T08:57:46.394Z,1.55
2023-03-24T09:00:15.596Z,1.27
2023-03-24T09:03:01.125Z,2.28
2023-03-24T09:05:54.207Z,0.90
2023-03-24T09:08:18.032Z,0.50
2023-03-24T09:10:47.187Z,0.88
2023-03-24T09:13:14.376Z,0.90
2023-03-24T09:15:46.768Z,0.63
2023-03-24T09:18:13.619Z,1.05
2023-03-24T09:20:40.403Z,1.58
2023-03-24T09:23:07.152Z,1.08
2023-03-24T09:25:33.858Z,0.70
2023-03-24T09:28:01.766Z,0.82
2023-03-24T09:30:30.539Z,1.13
2023-03-24T09:32:59.058Z,1.15
2023-03-24T09:35:27.416Z,1.48
2023-03-24T09:37:55.416Z,0.50
2023-03-24T09:40:28.437Z,2.25
2023-03-24T09:43:17.106Z,0.85
2023-03-24T09:45:55.877Z,1.10
2023-03-24T09:48:41.585Z,0.77
2023-03-24T09:51:20.814Z,0.70
2023-03-24T09:54:05.687Z,0.57
2023-03-24T09:56:35.371Z,0.60
2023-03-24T09:59:12.338Z,0.30
2023-03-24T10:01:39.096Z,1.67
2023-03-24T10:04:14.599Z,0.40
2023-03-24T10:06:42.709Z,1.35
2023-03-24T10:09:24.743Z,0.47
2023-03-24T10:12:21.029Z,0.25
2023-03-24T10:15:05.638Z,0.32
2023-03-24T10:17:58.119Z,0.30
2023-03-24T10:20:46.700Z,0.65
2023-03-24T10:23:35.781Z,0.40
2023-03-24T10:26:36.612Z,0.40
2023-03-24T10:29:22.582Z,0.98
2023-03-24T10:32:22.306Z,0.30
2023-03-24T10:34:59.616Z,0.50
2023-03-24T10:37:30.500Z,0.55
2023-03-24T10:40:12.224Z,2.78
2023-03-24T10:45:06.531Z,2.55
2023-03-24T10:47:34.367Z,1.75
2023-03-24T10:50:11.903Z,1.70
2023-03-24T10:52:46.880Z,1.90
2023-03-24T10:55:19.704Z,2.15
2023-03-24T10:57:50.731Z,3.08
2023-03-24T11:00:24.547Z,2.38
2023-03-24T11:02:58.877Z,2.58
2023-03-24T11:05:33.277Z,3.17
2023-03-24T11:08:17.895Z,4.22
2023-03-24T11:10:44.952Z,4.72
2023-03-24T11:13:28.355Z,4.68
2023-03-24T11:15:55.031Z,4.28
2023-03-24T11:18:22.202Z,5.97
2023-03-24T11:21:06.219Z,5.25
2023-03-24T11:23:42.832Z,6.45
2023-03-24T11:26:13.695Z,6.28
2023-03-24T11:28:47.078Z,6.43
2023-03-24T11:31:24.401Z,6.15
2023-03-24T11:33:59.287Z,6.78
2023-03-24T11:36:34.977Z,4.05
2023-03-24T11:39:06.631Z,6.85
2023-03-24T11:41:34.813Z,3.40
2023-03-24T11:44:18.056Z,8.00
2023-03-24T11:46:51.511Z,2.83
2023-03-24T11:49:22.296Z,5.03
2023-03-24T11:51:52.918Z,3.47
2023-03-24T11:54:23.161Z,4.00
2023-03-24T11:56:56.597Z,5.20
2023-03-24T11:59:57.870Z,6.03
2023-03-24T12:02:39.490Z,5.65
2023-03-24T12:08:21.180Z,3.33
2023-03-24T12:10:51.138Z,4.85
2023-03-24T12:13:36.963Z,4.68
2023-03-24T12:16:07.514Z,5.68
2023-03-24T12:18:56.957Z,2.77
2023-03-24T12:21:45.430Z,6.57
2023-03-24T12:24:33.775Z,7.03
2023-03-24T12:27:01.092Z,7.50
2023-03-24T12:29:52.767Z,4.18
2023-03-24T12:35:19.794Z,5.07
2023-03-24T12:37:53.958Z,5.78
2023-03-24T12:40:37.210Z,7.60
2023-03-24T12:43:30.748Z,5.95
2023-03-24T12:46:02.614Z,4.63
2023-03-24T12:48:38.436Z,4.80
2023-03-24T12:51:17.363Z,4.03
2023-03-24T12:54:18.813Z,5.43
2023-03-24T12:56:54.764Z,10.45
2023-03-24T12:59:25.386Z,8.55
2023-03-24T13:02:16.322Z,6.20
2023-03-24T13:04:46.207Z,3.00
2023-03-24T13:07:20.074Z,3.65
2023-03-24T13:09:56.819Z,4.57
2023-03-24T13:12:31.454Z,4.35
2023-03-24T13:15:12.935Z,5.38
2023-03-24T13:17:45.203Z,2.38
2023-03-24T13:20:26.084Z,4.05
2023-03-24T13:22:52.916Z,1.17
2023-03-24T13:25:49.184Z,2.03
2023-03-24T13:28:29.210Z,1.45
2023-03-24T13:30:57.199Z,3.75
2023-03-24T13:33:29.464Z,1.42
2023-03-24T13:36:31.839Z,2.70
2023-03-24T13:39:05.549Z,2.55
2023-03-24T13:41:37.688Z,0.98
2023-03-24T13:44:41.090Z,1.10
2023-03-24T13:47:15.227Z,1.73
2023-03-24T13:50:04.260Z,3.83
2023-03-24T13:52:44.792Z,2.20
2023-03-24T13:55:35.696Z,2.67
2023-03-24T13:58:23.945Z,3.80
2023-03-24T14:01:09.126Z,3.88
2023-03-24T14:03:40.630Z,1.92
2023-03-24T14:08:51.206Z,1.17
2023-03-24T14:14:07.657Z,4.32
2023-03-24T14:16:51.956Z,4.20
2023-03-24T14:19:42.823Z,2.00
2023-03-24T14:22:16.298Z,3.63
2023-03-24T14:24:46.267Z,2.67
2023-03-24T14:27:32.859Z,4.80
2023-03-24T14:30:21.986Z,1.25
2023-03-24T14:33:00.071Z,1.65
2023-03-24T14:35:33.032Z,3.92
2023-03-24T14:38:06.143Z,1.90
2023-03-24T14:40:40.064Z,2.38
2023-03-24T14:43:17.305Z,5.50
2023-03-24T14:46:00.207Z,5.25
2023-03-24T14:48:39.013Z,5.55
2023-03-24T14:51:41.434Z,9.25
2023-03-24T14:54:25.444Z,7.13
2023-03-24T14:56:54.590Z,5.90
2023-03-24T14:59:42.339Z,8.55
2023-03-24T15:02:36.129Z,10.75
2023-03-24T15:05:22.525Z,6.65
2023-03-24T15:08:12.333Z,5.47
2023-03-24T15:10:48.477Z,7.93
2023-03-24T15:13:39.995Z,10.13
2023-03-24T15:16:12.946Z,10.25
2023-03-24T15:19:12.398Z,9.50
2023-03-24T15:21:51.277Z,16.88
2023-03-24T15:24:27.535Z,13.15
2023-03-24T15:27:08.852Z,11.82
2023-03-24T15:29:37.263Z,15.63
2023-03-24T15:32:05.406Z,11.07
2023-03-24T15:34:39.136Z,14.40
2023-03-24T15:37:18.796Z,12.88
2023-03-24T15:39:50.022Z,17.33
2023-03-24T15:42:21.577Z,15.82
2023-03-24T15:44:49.894Z,12.18
2023-03-24T15:47:27.849Z,9.88
2023-03-24T15:50:05.885Z,12.70
2023-03-24T15:52:37.893Z,19.60
2023-03-24T15:55:28.904Z,13.13
2023-03-24T15:57:59.060Z,15.20
2023-03-24T16:00:39.969Z,12.80
2023-03-24T16:03:07.386Z,12.93
2023-03-24T16:05:35.274Z,14.20
2023-03-24T16:08:08.376Z,12.73
2023-03-24T16:10:43.126Z,19.65
2023-03-24T16:13:21.719Z,15.00
2023-03-24T16:15:54.267Z,21.77
2023-03-24T16:18:25.432Z,17.63
2023-03-24T16:20:52.521Z,12.15
2023-03-24T16:23:19.213Z,27.73
2023-03-24T16:25:46.164Z,27.35
2023-03-24T16:28:15.801Z,30.48
2023-03-24T16:30:44.455Z,22.27
2023-03-24T16:33:12.622Z,27.45
2023-03-24T16:35:39.634Z,27.25
2023-03-24T16:38:06.612Z,23.92
2023-03-24T16:40:43.847Z,22.40
2023-03-24T16:43:10.821Z,23.85
2023-03-24T16:45:37.746Z,27.33
2023-03-24T16:48:04.645Z,23.58
2023-03-24T16:50:38.958Z,19.95
2023-03-24T16:53:06.505Z,27.02
2023-03-24T16:55:33.508Z,26.75
2023-03-24T16:58:00.457Z,23.23
2023-03-24T17:00:27.606Z,24.42
2023-03-24T17:02:54.374Z,29.42
2023-03-24T17:05:25.700Z,23.52
2023-03-24T17:07:52.683Z,15.32
2023-03-24T17:10:20.326Z,27.48
2023-03-24T17:12:47.630Z,18.67
2023-03-24T17:15:19.492Z,17.40
2023-03-24T17:17:46.394Z,23.55
2023-03-24T17:20:13.733Z,26.33
2023-03-24T17:22:43.120Z,27.48
2023-03-24T17:25:11.936Z,23.90
2023-03-24T17:27:39.069Z,21.23
2023-03-24T17:30:07.539Z,29.30
2023-03-24T17:32:35.084Z,20.58
2023-03-24T17:35:02.678Z,25.92
2023-03-24T17:37:30.502Z,29.98
2023-03-24T17:39:57.744Z,27.48
2023-03-24T17:42:26.439Z,23.88
2023-03-24T17:44:53.861Z,25.30
2023-03-24T17:47:21.033Z,24.67
2023-03-24T17:49:47.791Z,17.88
2023-03-24T17:52:14.659Z,24.60
2023-03-24T17:54:42.773Z,15.93
2023-03-24T17:57:10.685Z,22.30
2023-03-24T17:59:38.093Z,31.20
2023-03-24T18:02:05.520Z,22.65
2023-03-24T18:04:33.195Z,15.68
2023-03-24T18:07:00.570Z,24.58
2023-03-24T18:09:27.283Z,21.20
2023-03-24T18:11:54.776Z,29.33
2023-03-24T18:14:22.218Z,24.33
2023-03-24T18:16:49.197Z,25.10
2023-03-24T18:19:16.529Z,29.13
2023-03-24T18:21:44.425Z,22.02
2023-03-24T18:24:12.134Z,28.88
2023-03-24T18:26:39.327Z,29.88
2023-03-24T18:29:06.819Z,20.67
2023-03-24T18:31:34.487Z,24.30
2023-03-24T18:34:01.561Z,27.75
2023-03-24T18:36:29.143Z,16.95
2023-03-24T18:39:08.086Z,24.42
2023-03-24T18:41:39.398Z,30.17
2023-03-24T18:44:09.370Z,27.80
2023-03-24T18:46:36.940Z,42.97
2023-03-24T18:49:04.391Z,30.02
2023-03-24T18:51:33.117Z,19.48
2023-03-24T18:54:00.258Z,28.92
2023-03-24T18:56:27.273Z,29.40
2023-03-24T18:58:54.067Z,19.25
2023-03-24T19:01:24.544Z,30.77
2023-03-24T19:03:52.731Z,26.10
2023-03-24T19:06:21.180Z,18.63
2023-03-24T19:08:53.582Z,30.83
2023-03-24T19:11:20.621Z,23.30
2023-03-24T19:13:49.916Z,31.48
2023-03-24T19:16:18.121Z,37.47
2023-03-24T19:18:45.238Z,31.73
2023-03-24T19:21:13.473Z,28.60
2023-03-24T19:23:40.784Z,29.45
2023-03-24T19:26:07.735Z,33.55
2023-03-24T19:28:36.930Z,32.00
2023-03-24T19:31:10.201Z,31.33
2023-03-24T19:33:37.661Z,27.02
2023-03-24T19:36:05.929Z,37.00
2023-03-24T19:38:33.032Z,35.03
2023-03-24T19:41:09.550Z,28.63
2023-03-24T19:43:36.932Z,32.28
2023-03-24T19:46:05.114Z,32.17
2023-03-24T19:48:32.137Z,27.02
2023-03-24T19:50:59.279Z,36.45
2023-03-24T19:53:27.015Z,22.95
2023-03-24T19:55:58.316Z,25.33
2023-03-24T19:58:25.459Z,20.38
2023-03-24T20:00:53.040Z,35.13
2023-03-24T20:03:20.565Z,29.50
2023-03-24T20:05:48.627Z,34.63
2023-03-24T20:08:15.941Z,32.05
2023-03-24T20:10:42.635Z,38.25
2023-03-24T20:13:09.975Z,31.17
2023-03-24T20:15:36.813Z,30.02
2023-03-24T20:18:03.986Z,27.83
2023-03-24T20:20:30.794Z,31.17
2023-03-24T20:22:57.610Z,33.78
2023-03-24T20:25:24.385Z,30.65
2023-03-24T20:27:51.211Z,27.25
2023-03-24T20:30:20.180Z,25.00
2023-03-24T20:32:47.662Z,34.03
2023-03-24T20:35:14.489Z,33.67
2023-03-24T20:37:41.286Z,26.00
2023-03-24T20:40:09.829Z,36.88
2023-03-24T20:42:37.368Z,36.20
2023-03-24T20:45:06.030Z,39.53
2023-03-24T20:47:32.952Z,28.35
2023-03-24T20:50:00.020Z,28.25
2023-03-24T20:52:27.231Z,29.00
2023-03-24T20:54:54.186Z,31.83
2023-03-24T20:57:20.936Z,41.55
2023-03-24T20:59:48.761Z,18.13
2023-03-24T21:02:15.994Z,27.23
2023-03-24T21:04:43.038Z,33.78
2023-03-24T21:07:09.721Z,26.75
2023-03-24T21:09:36.688Z,31.63
2023-03-24T21:12:04.093Z,30.02
2023-03-24T21:14:30.790Z,27.85
2023-03-24T21:16:57.780Z,25.67
2023-03-24T21:19:24.775Z,15.23
2023-03-24T21:21:51.652Z,26.55
2023-03-24T21:24:18.534Z,34.35
2023-03-24T21:26:50.767Z,31.73
2023-03-24T21:29:17.866Z,35.28
2023-03-24T21:31:44.542Z,29.67
2023-03-24T21:34:11.476Z,28.70
2023-03-24T21:36:38.637Z,25.98
2023-03-24T21:39:11.888Z,29.63
2023-03-24T21:41:39.052Z,22.52
2023-03-24T21:44:09.153Z,35.03
2023-03-24T21:46:36.915Z,29.33
2023-03-24T21:49:05.227Z,21.58
2023-03-24T21:51:34.269Z,28.88
2023-03-24T21:54:04.222Z,26.77
2023-03-24T21:56:32.745Z,28.23
2023-03-24T21:59:00.229Z,29.05
2023-03-24T22:01:27.310Z,24.90
2023-03-24T22:03:54.697Z,28.65
2023-03-24T22:06:22.757Z,21.88
2023-03-24T22:08:49.701Z,22.48
2023-03-24T22:11:18.789Z,26.15
2023-03-24T22:13:46.465Z,25.40
2023-03-24T22:16:14.339Z,19.42
2023-03-24T22:18:42.409Z,27.00
2023-03-24T22:21:11.067Z,36.78
2023-03-24T22:23:39.845Z,25.52
2023-03-24T22:26:09.576Z,26.85
2023-03-24T22:28:36.696Z,31.02
2023-03-24T22:31:16.243Z,30.50
2023-03-24T22:33:44.281Z,30.13
2023-03-24T22:36:11.937Z,26.60
2023-03-24T22:38:38.928Z,26.05
2023-03-24T22:41:09.502Z,30.70
2023-03-24T22:43:36.843Z,30.00
2023-03-24T22:46:04.101Z,32.22
2023-03-24T22:48:31.033Z,26.38
2023-03-24T22:50:57.818Z,24.58
2023-03-24T22:53:25.126Z,28.38
2023-03-24T22:55:52.594Z,28.17
2023-03-24T22:58:19.654Z,38.92
2023-03-24T23:00:49.285Z,28.55
2023-03-24T23:03:16.128Z,28.35
2023-03-24T23:05:45.757Z,33.05
2023-03-24T23:08:15.242Z,35.35
2023-03-24T23:10:44.461Z,37.53
2023-03-24T23:13:11.925Z,38.63
2023-03-24T23:15:42.344Z,31.35
2023-03-24T23:18:09.560Z,21.83
2023-03-24T23:20:36.584Z,23.08
2023-03-24T23:23:05.875Z,44.50
2023-03-24T23:25:34.644Z,36.70
2023-03-24T23:28:01.497Z,28.35
2023-03-24T23:30:28.409Z,29.73
2023-03-24T23:32:57.456Z,29.25
2023-03-24T23:35:24.251Z,32.03
2023-03-24T23:37:51.001Z,30.42
2023-03-24T23:40:19.169Z,29.27
2023-03-24T23:42:47.519Z,31.00
2023-03-24T23:45:18.084Z,42.60
2023-03-24T23:47:49.846Z,29.55
2023-03-24T23:50:18.532Z,33.22
2023-03-24T23:52:45.504Z,32.90
2023-03-24T23:55:14.137Z,32.92
2023-03-24T23:57:42.554Z,44.10
